createdAt,value
2023-03-18T00:01:30.162Z,26.55
2023-03-18T00:04:01.639Z,27.48
2023-03-18T00:06:32.325Z,27.72
2023-03-18T00:09:03.894Z,27.07
2023-03-18T00:11:35.323Z,27.62
2023-03-18T00:14:06.677Z,26.72
2023-03-18T00:16:38.692Z,27.43
2023-03-18T00:19:10.607Z,27.33
2023-03-18T00:21:42.194Z,27.46
2023-03-18T00:24:13.815Z,27.38
2023-03-18T00:26:46.149Z,27.87
2023-03-18T00:29:17.637Z,28.40
2023-03-18T00:31:49.384Z,27.58
2023-03-18T00:34:20.028Z,28.01
2023-03-18T00:36:58.284Z,27.80
2023-03-18T00:39:30.756Z,27.88
2023-03-18T00:42:09.610Z,28.07
2023-03-18T00:44:41.512Z,28.50
2023-03-18T00:47:12.921Z,28.36
2023-03-18T00:49:44.859Z,28.77
2023-03-18T00:52:16.579Z,28.25
2023-03-18T00:54:49.288Z,28.17
2023-03-18T00:57:20.938Z,27.26
2023-03-18T00:59:53.155Z,27.15
2023-03-18T01:02:26.361Z,27.09
2023-03-18T01:04:58.699Z,27.89
2023-03-18T01:07:30.339Z,27.28
2023-03-18T01:10:01.680Z,26.74
2023-03-18T01:12:32.352Z,26.98
2023-03-18T01:15:06.391Z,26.83
2023-03-18T01:17:38.254Z,27.62
2023-03-18T01:20:11.061Z,26.70
2023-03-18T01:22:43.925Z,27.11
2023-03-18T01:25:19.740Z,26.43
2023-03-18T01:27:55.656Z,26.88
2023-03-18T01:30:27.136Z,26.85
2023-03-18T01:33:00.426Z,26.32
2023-03-18T01:35:35.788Z,26.24
2023-03-18T01:38:08.203Z,26.13
2023-03-18T01:40:43.527Z,26.30
2023-03-18T01:43:20.338Z,26.67
2023-03-18T01:45:55.135Z,26.73
2023-03-18T01:48:28.901Z,26.38
2023-03-18T01:51:10.265Z,26.48
2023-03-18T01:53:47.698Z,26.09
2023-03-18T01:56:19.841Z,26.54
2023-03-18T01:58:54.225Z,27.06
2023-03-18T02:01:55.732Z,26.64
2023-03-18T02:04:32.741Z,26.57
2023-03-18T02:07:04.322Z,26.69
2023-03-18T02:09:36.375Z,26.83
2023-03-18T02:12:10.330Z,26.44
2023-03-18T02:14:42.475Z,26.57
2023-03-18T02:17:37.004Z,27.25
2023-03-18T02:20:27.558Z,27.19
2023-03-18T02:23:19.323Z,27.22
2023-03-18T02:26:17.978Z,26.08
2023-03-18T02:28:50.709Z,26.38
2023-03-18T02:31:22.916Z,27.04
2023-03-18T02:33:54.428Z,27.67
2023-03-18T02:36:26.447Z,27.65
2023-03-18T02:38:59.569Z,27.90
2023-03-18T02:41:33.972Z,27.93
2023-03-18T02:44:05.909Z,27.87
2023-03-18T02:46:59.375Z,27.49
2023-03-18T02:49:30.863Z,27.55
2023-03-18T02:52:02.237Z,27.33
2023-03-18T02:54:33.491Z,27.40
2023-03-18T02:57:04.846Z,27.51
2023-03-18T02:59:38.046Z,27.12
2023-03-18T03:02:08.757Z,26.91
2023-03-18T03:04:41.390Z,27.33
2023-03-18T03:07:13.818Z,26.75
2023-03-18T03:09:49.947Z,27.07
2023-03-18T03:12:22.591Z,26.74
2023-03-18T03:14:58.164Z,26.46
2023-03-18T03:17:33.195Z,26.93
2023-03-18T03:20:07.655Z,26.55
2023-03-18T03:22:43.419Z,26.39
2023-03-18T03:25:16.070Z,26.81
2023-03-18T03:27:47.282Z,25.98
2023-03-18T03:30:18.822Z,26.49
2023-03-18T03:32:52.341Z,26.62
2023-03-18T03:35:24.862Z,26.03
2023-03-18T03:37:56.458Z,26.26
2023-03-18T03:40:29.289Z,25.94
2023-03-18T03:43:01.163Z,26.07
2023-03-18T03:45:32.422Z,25.91
2023-03-18T03:48:04.208Z,26.23
2023-03-18T03:50:35.352Z,25.90
2023-03-18T03:53:08.311Z,26.06
2023-03-18T03:55:40.514Z,25.74
2023-03-18T03:58:12.126Z,25.83
2023-03-18T04:00:45.081Z,25.76
2023-03-18T04:03:16.665Z,25.39
2023-03-18T04:05:49.407Z,25.33
2023-03-18T04:08:24.264Z,25.47
2023-03-18T04:10:55.623Z,25.64
2023-03-18T04:13:27.934Z,25.82
2023-03-18T04:15:59.247Z,24.79
2023-03-18T04:18:30.941Z,25.35
2023-03-18T04:21:02.197Z,25.08
2023-03-18T04:23:43.256Z,24.77
2023-03-18T04:26:14.714Z,25.21
2023-03-18T04:28:45.383Z,24.95
2023-03-18T04:31:19.558Z,24.69
2023-03-18T04:33:51.065Z,25.01
2023-03-18T04:36:22.870Z,24.62
2023-03-18T04:38:54.933Z,23.89
2023-03-18T04:41:26.805Z,24.50
2023-03-18T04:44:02.107Z,24.37
2023-03-18T04:46:42.685Z,24.40
2023-03-18T04:49:14.414Z,24.09
2023-03-18T04:51:47.314Z,24.16
2023-03-18T04:54:38.817Z,24.27
2023-03-18T04:57:10.441Z,24.24
2023-03-18T04:59:47.658Z,23.81
2023-03-18T05:02:19.145Z,23.51
2023-03-18T05:04:50.028Z,23.57
2023-03-18T05:07:23.275Z,23.95
2023-03-18T05:10:05.565Z,23.65
2023-03-18T05:12:38.052Z,23.88
2023-03-18T05:15:12.100Z,23.09
2023-03-18T05:17:47.875Z,23.07
2023-03-18T05:20:18.806Z,22.98
2023-03-18T05:22:51.011Z,22.62
2023-03-18T05:25:40.135Z,22.33
2023-03-18T05:28:12.674Z,22.56
2023-03-18T05:30:54.541Z,22.60
2023-03-18T05:33:26.980Z,22.27
2023-03-18T05:36:00.214Z,21.94
2023-03-18T05:38:37.901Z,21.98
2023-03-18T05:41:09.774Z,21.85
2023-03-18T05:43:44.996Z,21.82
2023-03-18T05:46:15.700Z,21.57
2023-03-18T05:49:06.565Z,21.69
2023-03-18T05:51:47.851Z,21.68
2023-03-18T05:54:30.387Z,21.42
2023-03-18T05:57:01.973Z,21.05
2023-03-18T05:59:33.608Z,20.88
2023-03-18T06:02:06.013Z,20.84
2023-03-18T06:04:37.349Z,20.79
2023-03-18T06:07:09.109Z,20.77
2023-03-18T06:09:40.900Z,20.42
2023-03-18T06:12:12.914Z,20.31
2023-03-18T06:14:44.192Z,20.55
2023-03-18T06:17:15.533Z,20.55
2023-03-18T06:19:47.457Z,20.21
2023-03-18T06:22:19.330Z,20.06
2023-03-18T06:24:50.632Z,20.05
2023-03-18T06:27:22.938Z,20.07
2023-03-18T06:29:59.021Z,19.91
2023-03-18T06:32:31.600Z,19.90
2023-03-18T06:35:03.072Z,19.64
2023-03-18T06:37:35.692Z,19.58
2023-03-18T06:40:08.258Z,19.60
2023-03-18T06:42:39.446Z,19.73
2023-03-18T06:45:27.174Z,19.49
2023-03-18T06:48:04.266Z,19.48
2023-03-18T06:50:41.117Z,19.21
2023-03-18T06:53:19.286Z,19.26
2023-03-18T06:55:52.078Z,19.21
2023-03-18T06:58:27.383Z,19.20
2023-03-18T07:01:13.915Z,18.98
2023-03-18T07:03:47.225Z,18.90
2023-03-18T07:06:18.201Z,18.93
2023-03-18T07:08:49.924Z,18.72
2023-03-18T07:11:22.341Z,18.78
2023-03-18T07:13:54.813Z,18.51
2023-03-18T07:16:35.960Z,18.62
2023-03-18T07:19:07.233Z,18.69
2023-03-18T07:21:38.723Z,18.67
2023-03-18T07:24:10.052Z,18.48
2023-03-18T07:26:41.104Z,18.42
2023-03-18T07:29:13.857Z,18.32
2023-03-18T07:31:44.912Z,18.14
2023-03-18T07:34:20.347Z,18.07
2023-03-18T07:36:51.784Z,18.21
2023-03-18T07:39:24.232Z,18.06
2023-03-18T07:41:55.888Z,18.09
2023-03-18T07:44:33.158Z,18.12
2023-03-18T07:47:05.144Z,17.99
2023-03-18T07:49:36.804Z,17.92
2023-03-18T07:52:08.164Z,17.92
2023-03-18T07:54:39.772Z,17.77
2023-03-18T07:57:11.729Z,17.61
2023-03-18T07:59:43.203Z,17.93
2023-03-18T08:02:18.554Z,17.79
2023-03-18T08:04:50.569Z,17.68
2023-03-18T08:07:22.294Z,17.92
2023-03-18T08:09:53.877Z,17.53
2023-03-18T08:12:26.203Z,17.57
2023-03-18T08:14:57.796Z,17.46
2023-03-18T08:17:28.953Z,17.53
2023-03-18T08:20:00.335Z,17.48
2023-03-18T08:22:31.627Z,17.44
2023-03-18T08:25:02.948Z,17.35
2023-03-18T08:27:34.459Z,17.06
2023-03-18T08:30:08.408Z,17.22
2023-03-18T08:32:40.015Z,17.15
2023-03-18T08:35:11.504Z,16.99
2023-03-18T08:37:42.872Z,16.99
2023-03-18T08:40:14.922Z,17.00
2023-03-18T08:42:46.846Z,17.09
2023-03-18T08:45:18.748Z,17.12
2023-03-18T08:47:50.221Z,16.96
2023-03-18T08:50:22.276Z,17.14
2023-03-18T08:52:53.632Z,16.86
2023-03-18T08:55:25.684Z,16.67
2023-03-18T08:57:57.287Z,16.64
2023-03-18T09:00:29.254Z,16.80
2023-03-18T09:03:00.809Z,16.58
2023-03-18T09:05:32.390Z,16.74
2023-03-18T09:08:06.811Z,16.58
2023-03-18T09:10:38.172Z,16.64
2023-03-18T09:13:09.982Z,16.58
2023-03-18T09:15:42.460Z,16.58
2023-03-18T09:18:15.209Z,16.40
2023-03-18T09:20:47.929Z,16.28
2023-03-18T09:23:19.982Z,15.99
2023-03-18T09:25:51.678Z,15.99
2023-03-18T09:28:23.564Z,16.32
2023-03-18T09:30:54.221Z,16.25
2023-03-18T09:33:26.094Z,16.29
2023-03-18T09:35:57.630Z,16.30
2023-03-18T09:38:29.320Z,16.12
2023-03-18T09:41:12.342Z,16.23
2023-03-18T09:43:55.521Z,16.14
2023-03-18T09:46:45.028Z,16.17
2023-03-18T09:49:27.968Z,16.18
2023-03-18T09:52:23.145Z,16.13
2023-03-18T09:55:09.104Z,16.03
2023-03-18T09:57:47.991Z,15.87
2023-03-18T10:00:30.564Z,16.00
2023-03-18T10:03:18.287Z,15.96
2023-03-18T10:06:15.027Z,15.50
2023-03-18T10:08:58.642Z,15.38
2023-03-18T10:11:38.402Z,15.48
2023-03-18T10:14:28.644Z,15.44
2023-03-18T10:17:21.346Z,15.66
2023-03-18T10:20:15.559Z,15.58
2023-03-18T10:23:22.926Z,15.49
2023-03-18T10:26:00.293Z,15.50
2023-03-18T10:28:37.725Z,15.47
2023-03-18T10:31:22.515Z,15.57
2023-03-18T10:34:08.580Z,15.66
2023-03-18T10:36:41.584Z,15.11
2023-03-18T10:39:21.839Z,15.39
2023-03-18T10:41:55.439Z,15.41
2023-03-18T10:44:38.210Z,15.53
2023-03-18T10:47:27.360Z,15.41
2023-03-18T10:50:06.034Z,15.42
2023-03-18T10:52:57.279Z,15.50
2023-03-18T10:55:33.370Z,15.60
2023-03-18T10:58:12.560Z,15.49
2023-03-18T11:00:44.219Z,15.28
2023-03-18T11:03:31.113Z,15.36
2023-03-18T11:06:06.163Z,15.18
2023-03-18T11:08:42.466Z,15.26
2023-03-18T11:11:24.358Z,15.15
2023-03-18T11:14:00.162Z,15.14
2023-03-18T11:16:43.953Z,15.15
2023-03-18T11:19:31.213Z,15.19
2023-03-18T11:22:23.957Z,15.18
2023-03-18T11:25:05.146Z,15.12
2023-03-18T11:27:42.045Z,15.18
2023-03-18T11:30:33.574Z,15.19
2023-03-18T11:33:16.088Z,15.15
2023-03-18T11:35:55.050Z,15.13
2023-03-18T11:38:35.524Z,14.89
2023-03-18T11:41:26.150Z,14.98
2023-03-18T11:44:01.567Z,14.96
2023-03-18T11:46:47.085Z,14.70
2023-03-18T11:49:22.150Z,14.72
2023-03-18T11:52:05.635Z,14.72
2023-03-18T11:54:46.658Z,14.81
2023-03-18T11:58:04.756Z,14.66
2023-03-18T12:01:30.454Z,14.60
2023-03-18T12:04:35.852Z,14.49
2023-03-18T12:07:28.128Z,14.45
2023-03-18T12:10:16.758Z,14.69
2023-03-18T12:12:48.190Z,14.43
2023-03-18T12:15:40.514Z,14.52
2023-03-18T12:18:38.176Z,14.27
2023-03-18T12:21:24.621Z,14.36
2023-03-18T12:24:23.625Z,14.51
2023-03-18T12:27:14.287Z,14.60
2023-03-18T12:30:24.459Z,14.59
2023-03-18T12:33:19.726Z,14.22
2023-03-18T12:36:02.102Z,14.32
2023-03-18T12:39:01.131Z,14.45
2023-03-18T12:41:43.731Z,14.37
2023-03-18T12:44:30.883Z,14.34
2023-03-18T12:47:19.611Z,14.20
2023-03-18T12:49:56.563Z,14.17
2023-03-18T12:52:34.029Z,14.21
2023-03-18T12:55:17.640Z,14.19
2023-03-18T12:58:09.179Z,14.10
2023-03-18T13:00:49.303Z,14.17
2023-03-18T13:03:29.706Z,13.89
2023-03-18T13:06:39.149Z,13.96
2023-03-18T13:09:24.366Z,14.09
2023-03-18T13:12:16.917Z,14.05
2023-03-18T13:15:01.139Z,14.08
2023-03-18T13:17:44.099Z,13.85
2023-03-18T13:20:26.255Z,13.89
2023-03-18T13:23:31.041Z,13.76
2023-03-18T13:26:08.579Z,13.75
2023-03-18T13:29:01.644Z,13.67
2023-03-18T13:31:36.245Z,13.79
2023-03-18T13:34:30.803Z,13.73
2023-03-18T13:37:35.840Z,13.68
2023-03-18T13:40:31.082Z,13.48
2023-03-18T13:43:03.786Z,13.71
2023-03-18T13:45:40.619Z,13.77
2023-03-18T13:48:26.170Z,13.76
2023-03-18T13:50:59.030Z,13.58
2023-03-18T13:53:31.239Z,13.67
2023-03-18T13:56:06.274Z,13.43
2023-03-18T13:58:49.741Z,13.44
2023-03-18T14:01:27.166Z,13.68
2023-03-18T14:04:03.565Z,13.39
2023-03-18T14:06:38.426Z,13.52
2023-03-18T14:09:48.880Z,13.54
2023-03-18T14:12:26.265Z,13.32
2023-03-18T14:15:00.213Z,13.52
2023-03-18T14:17:49.509Z,13.57
2023-03-18T14:20:22.044Z,13.55
2023-03-18T14:23:18.262Z,13.52
2023-03-18T14:25:56.054Z,13.43
2023-03-18T14:28:28.491Z,13.57
2023-03-18T14:31:21.914Z,13.52
2023-03-18T14:34:20.847Z,13.42
2023-03-18T14:36:55.286Z,13.45
2023-03-18T14:39:34.584Z,13.50
2023-03-18T14:42:11.020Z,13.15
2023-03-18T14:44:56.217Z,13.30
2023-03-18T14:47:53.438Z,13.30
2023-03-18T14:50:46.835Z,13.10
2023-03-18T14:53:24.258Z,13.16
2023-03-18T14:55:57.732Z,13.10
2023-03-18T14:58:29.944Z,12.95
2023-03-18T15:01:13.096Z,13.16
2023-03-18T15:03:50.210Z,13.06
2023-03-18T15:06:24.859Z,13.10
2023-03-18T15:09:02.725Z,13.12
2023-03-18T15:11:41.284Z,13.03
2023-03-18T15:14:33.632Z,13.09
2023-03-18T15:17:08.035Z,12.92
2023-03-18T15:19:39.616Z,12.87
2023-03-18T15:22:12.201Z,12.84
2023-03-18T15:24:42.667Z,12.75
2023-03-18T15:27:22.024Z,12.69
2023-03-18T15:29:56.150Z,12.81
2023-03-18T15:32:36.026Z,12.77
2023-03-18T15:35:24.061Z,12.69
2023-03-18T15:38:13.134Z,12.55
2023-03-18T15:40:47.627Z,12.53
2023-03-18T15:43:26.427Z,12.46
2023-03-18T15:46:02.298Z,12.44
2023-03-18T15:48:44.645Z,12.58
2023-03-18T15:51:46.569Z,12.49
2023-03-18T15:54:41.669Z,12.64
2023-03-18T15:57:23.452Z,12.65
2023-03-18T15:59:56.071Z,12.65
2023-03-18T16:02:28.016Z,12.51
2023-03-18T16:05:24.714Z,12.57
2023-03-18T16:07:57.448Z,12.54
2023-03-18T16:10:29.300Z,12.28
2023-03-18T16:13:03.063Z,12.12
2023-03-18T16:15:34.459Z,12.03
2023-03-18T16:18:06.365Z,12.22
2023-03-18T16:20:38.377Z,12.26
2023-03-18T16:23:10.585Z,12.25
2023-03-18T16:25:43.133Z,12.22
2023-03-18T16:28:25.825Z,12.11
2023-03-18T16:31:00.125Z,12.01
2023-03-18T16:33:31.289Z,11.83
2023-03-18T16:36:03.906Z,12.00
2023-03-18T16:38:36.300Z,12.17
2023-03-18T16:41:08.143Z,12.18
2023-03-18T16:43:39.364Z,12.06
2023-03-18T16:46:13.110Z,12.26
2023-03-18T16:48:44.952Z,12.22
2023-03-18T16:51:16.292Z,12.22
2023-03-18T16:53:47.691Z,12.15
2023-03-18T16:56:20.389Z,12.03
2023-03-18T16:58:53.171Z,12.22
2023-03-18T17:01:26.396Z,12.11
2023-03-18T17:03:57.883Z,12.07
2023-03-18T17:06:29.370Z,12.14
2023-03-18T17:09:00.636Z,12.13
2023-03-18T17:11:32.219Z,12.16
2023-03-18T17:14:05.421Z,12.10
2023-03-18T17:16:36.724Z,11.80
2023-03-18T17:19:08.109Z,11.63
2023-03-18T17:21:39.561Z,11.77
2023-03-18T17:24:11.453Z,11.61
2023-03-18T17:26:42.533Z,11.78
2023-03-18T17:29:43.280Z,11.74
2023-03-18T17:32:14.635Z,11.70
2023-03-18T17:34:48.005Z,11.96
2023-03-18T17:37:20.171Z,11.96
2023-03-18T17:39:52.094Z,11.89
2023-03-18T17:42:34.352Z,11.79
2023-03-18T17:45:34.761Z,12.04
2023-03-18T17:48:23.782Z,11.81
2023-03-18T17:51:08.699Z,11.76
2023-03-18T17:53:50.568Z,11.77
2023-03-18T17:56:22.348Z,11.56
2023-03-18T17:58:55.549Z,11.70
2023-03-18T18:01:28.780Z,11.64
2023-03-18T18:04:01.853Z,11.65
2023-03-18T18:06:35.248Z,11.59
2023-03-18T18:09:08.161Z,11.58
2023-03-18T18:11:41.221Z,11.56
2023-03-18T18:14:28.783Z,11.65
2023-03-18T18:17:01.031Z,11.56
2023-03-18T18:19:32.596Z,11.79
2023-03-18T18:22:05.203Z,11.77
2023-03-18T18:24:37.450Z,11.65
2023-03-18T18:27:10.566Z,11.74
2023-03-18T18:29:41.704Z,11.81
2023-03-18T18:32:13.458Z,11.82
2023-03-18T18:34:44.821Z,11.72
2023-03-18T18:37:16.357Z,11.85
2023-03-18T18:39:47.415Z,11.80
2023-03-18T18:42:19.472Z,11.88
2023-03-18T18:44:50.915Z,11.90
2023-03-18T18:47:22.528Z,11.96
2023-03-18T18:49:53.845Z,12.05
2023-03-18T18:52:25.662Z,12.11
2023-03-18T18:54:57.218Z,12.13
2023-03-18T18:57:32.605Z,12.10
2023-03-18T19:00:03.724Z,12.06
2023-03-18T19:02:39.024Z,12.20
2023-03-18T19:05:11.350Z,12.27
2023-03-18T19:07:46.964Z,12.29
2023-03-18T19:10:19.980Z,12.44
2023-03-18T19:12:51.229Z,12.40
2023-03-18T19:15:23.185Z,12.50
2023-03-18T19:17:54.448Z,12.47
2023-03-18T19:20:31.157Z,12.38
2023-03-18T19:23:02.210Z,12.47
2023-03-18T19:25:33.731Z,12.34
2023-03-18T19:28:05.143Z,12.71
2023-03-18T19:30:36.689Z,12.78
2023-03-18T19:33:18.493Z,12.84
2023-03-18T19:35:49.767Z,12.93
2023-03-18T19:38:22.965Z,12.95
2023-03-18T19:40:56.623Z,13.06
2023-03-18T19:43:27.812Z,13.07
2023-03-18T19:45:59.561Z,13.23
2023-03-18T19:48:31.057Z,13.06
2023-03-18T19:51:02.903Z,13.44
2023-03-18T19:53:38.821Z,13.49
2023-03-18T19:56:27.349Z,13.60
2023-03-18T19:59:02.317Z,14.02
2023-03-18T20:01:33.676Z,14.41
2023-03-18T20:04:05.181Z,14.29
2023-03-18T20:06:36.553Z,14.28
2023-03-18T20:09:07.774Z,14.79
2023-03-18T20:11:39.422Z,14.78
2023-03-18T20:14:39.642Z,14.33
2023-03-18T20:17:40.083Z,15.18
2023-03-18T20:20:25.465Z,15.29
2023-03-18T20:23:00.735Z,15.49
2023-03-18T20:25:42.554Z,15.50
2023-03-18T20:28:17.667Z,15.59
2023-03-18T20:30:53.276Z,16.06
2023-03-18T20:33:25.284Z,16.63
2023-03-18T20:35:57.400Z,16.68
2023-03-18T20:38:31.283Z,17.04
2023-03-18T20:41:03.364Z,16.95
2023-03-18T20:43:33.800Z,17.27
2023-03-18T20:46:05.961Z,17.54
2023-03-18T20:48:39.604Z,17.69
2023-03-18T20:51:27.930Z,17.66
2023-03-18T20:53:59.667Z,17.83
2023-03-18T20:56:33.946Z,17.78
2023-03-18T20:59:05.823Z,17.80
2023-03-18T21:01:36.375Z,17.76
2023-03-18T21:04:07.864Z,18.32
2023-03-18T21:06:39.072Z,18.18
2023-03-18T21:09:11.657Z,17.61
2023-03-18T21:11:42.955Z,18.18
2023-03-18T21:14:17.808Z,19.06
2023-03-18T21:16:49.138Z,20.12
2023-03-18T21:19:20.536Z,20.00
2023-03-18T21:21:52.308Z,19.67
2023-03-18T21:24:23.400Z,19.99
2023-03-18T21:27:04.776Z,19.99
2023-03-18T21:29:37.837Z,19.89
2023-03-18T21:32:15.536Z,20.53
2023-03-18T21:34:46.751Z,20.65
2023-03-18T21:37:19.985Z,21.07
2023-03-18T21:39:52.427Z,20.86
2023-03-18T21:42:32.092Z,20.16
2023-03-18T21:45:03.031Z,20.56
2023-03-18T21:47:34.489Z,20.85
2023-03-18T21:50:05.827Z,21.47
2023-03-18T21:52:40.032Z,21.97
2023-03-18T21:55:14.492Z,22.20
2023-03-18T21:57:48.586Z,22.11
2023-03-18T22:00:21.493Z,21.32
2023-03-18T22:02:53.151Z,20.85
2023-03-18T22:05:25.096Z,22.35
2023-03-18T22:07:56.884Z,23.15
2023-03-18T22:10:28.295Z,23.44
2023-03-18T22:12:59.671Z,24.13
2023-03-18T22:15:39.962Z,23.96
2023-03-18T22:18:11.426Z,23.40
2023-03-18T22:20:44.168Z,22.67
2023-03-18T22:23:26.773Z,23.26
2023-03-18T22:25:59.238Z,22.81
2023-03-18T22:28:30.648Z,22.68
2023-03-18T22:31:03.491Z,23.21
2023-03-18T22:33:35.893Z,22.95
2023-03-18T22:36:07.883Z,23.42
2023-03-18T22:38:39.099Z,24.34
2023-03-18T22:41:21.209Z,25.00
2023-03-18T22:43:52.706Z,22.99
2023-03-18T22:46:24.923Z,23.83
2023-03-18T22:48:56.092Z,23.80
2023-03-18T22:51:30.650Z,23.86
2023-03-18T22:54:02.100Z,24.22
2023-03-18T22:56:34.081Z,24.29
2023-03-18T22:59:06.107Z,23.84
2023-03-18T23:01:37.245Z,24.37
2023-03-18T23:04:08.047Z,24.65
2023-03-18T23:06:40.030Z,25.04
2023-03-18T23:09:11.341Z,24.65
2023-03-18T23:11:42.761Z,24.35
2023-03-18T23:14:13.908Z,24.56
2023-03-18T23:16:45.377Z,26.12
2023-03-18T23:19:16.516Z,25.99
2023-03-18T23:21:47.942Z,24.63
2023-03-18T23:24:19.101Z,24.36
2023-03-18T23:26:50.585Z,25.13
2023-03-18T23:29:22.249Z,25.04
2023-03-18T23:31:54.211Z,24.39
2023-03-18T23:34:25.599Z,25.28
2023-03-18T23:36:56.445Z,25.76
2023-03-18T23:39:27.871Z,25.21
2023-03-18T23:41:58.533Z,25.48
2023-03-18T23:44:30.458Z,24.57
2023-03-18T23:47:01.578Z,25.04
2023-03-18T23:49:34.154Z,24.52
2023-03-18T23:52:08.502Z,24.04
2023-03-18T23:54:40.874Z,24.87
2023-03-18T23:57:14.653Z,24.57
2023-03-18T23:59:46.717Z,23.69
